Time;durP1;ratioP1;P1;durP2;ratioP2;P2;SDS_P1;SDS_P2;PMS_P1;PMS_P2;Temp;Humidity;BMP_temperature;BMP_pressure;BME280_temperature;BME280_humidity;BME280_pressure;Samples;Min_cycle;Max_cycle;Signal;HPM_P1;HPM_P2
2021/04/05 00:02:16;;;;;;;0.10;0.10;;;14.20;62.80;;;;;;4214297;28;20048;-42
2021/04/05 00:04:37;;;;;;;1.48;1.38;;;14.20;62.80;;;;;;4213500;28;20056;-43
2021/04/05 00:06:58;;;;;;;0.10;0.10;;;14.20;62.90;;;;;;4214551;28;20059;-43
2021/04/05 00:09:20;;;;;;;0.00;0.00;;;14.20;62.90;;;;;;4214220;28;20066;-44
2021/04/05 00:11:41;;;;;;;0.10;0.10;;;14.20;63.00;;;;;;4214361;28;20105;-43
2021/04/05 00:14:02;;;;;;;0.30;0.30;;;14.20;63.00;;;;;;4213299;28;20059;-43
2021/04/05 00:16:25;;;;;;;0.68;0.68;;;14.20;63.00;;;;;;4212723;28;20083;-43
2021/04/05 00:18:47;;;;;;;0.00;0.00;;;14.20;63.10;;;;;;4212953;28;20043;-43
2021/04/05 00:21:12;;;;;;;0.05;0.05;;;14.20;63.10;;;;;;4214158;28;20051;-46
2021/04/05 00:23:33;;;;;;;0.17;0.10;;;14.10;63.10;;;;;;4214201;28;20066;-45
2021/04/05 00:25:55;;;;;;;0.22;0.22;;;14.10;63.20;;;;;;4214370;28;20097;-44
2021/04/05 00:28:16;;;;;;;0.00;0.00;;;14.10;63.20;;;;;;4213886;28;20056;-44
2021/04/05 00:30:38;;;;;;;0.65;0.65;;;14.10;63.30;;;;;;4214187;28;20052;-45
2021/04/05 00:32:59;;;;;;;0.00;0.00;;;14.10;63.30;;;;;;4213849;28;20051;-46
2021/04/05 00:35:23;;;;;;;;;;;14.10;63.30;;;;;;4214568;28;20064;-49
2021/04/05 00:37:45;;;;;;;0.00;0.00;;;14.10;63.40;;;;;;4214046;28;19924;-48
2021/04/05 00:40:08;;;;;;;0.00;0.00;;;14.10;63.40;;;;;;4213271;28;20048;-45
2021/04/05 00:42:30;;;;;;;0.40;0.40;;;14.10;63.50;;;;;;4214001;28;20060;-46
2021/04/05 00:44:51;;;;;;;0.00;0.00;;;14.10;63.60;;;;;;4214003;28;20056;-43
2021/04/05 00:47:14;;;;;;;0.00;0.00;;;14.10;63.70;;;;;;4213773;28;20528;-49
2021/04/05 00:49:35;;;;;;;0.10;0.10;;;14.10;63.70;;;;;;4213831;28;20048;-48
2021/04/05 00:51:57;;;;;;;0.00;0.00;;;14.10;63.70;;;;;;4212715;28;20114;-49
2021/04/05 00:54:17;;;;;;;0.35;0.35;;;14.10;63.70;;;;;;4213849;28;20060;-49
2021/04/05 00:56:41;;;;;;;0.00;0.00;;;14.10;63.80;;;;;;4213899;28;20123;-46
2021/04/05 00:59:03;;;;;;;0.10;0.10;;;14.10;63.80;;;;;;4213511;28;20434;-43
2021/04/05 01:01:29;;;;;;;0.00;0.00;;;14.10;64.80;;;;;;4213515;28;20055;-44
2021/04/05 01:03:55;;;;;;;0.13;0.13;;;14.00;63.80;;;;;;4213145;28;20571;-43
2021/04/05 01:06:20;;;;;;;0.00;0.00;;;14.10;63.90;;;;;;4213670;28;20067;-43
2021/04/05 01:08:41;;;;;;;0.00;0.00;;;14.00;63.90;;;;;;4213690;28;20549;-44
2021/04/05 01:11:02;;;;;;;0.05;0.05;;;14.00;64.00;;;;;;4213647;28;20048;-44
2021/04/05 01:13:27;;;;;;;0.00;0.00;;;14.00;64.10;;;;;;4213533;28;20155;-47
2021/04/05 01:15:49;;;;;;;0.55;0.55;;;14.00;64.10;;;;;;4213334;28;20139;-46
2021/04/05 01:18:11;;;;;;;0.00;0.00;;;14.00;64.10;;;;;;4213212;28;20058;-44
2021/04/05 01:20:36;;;;;;;0.38;0.38;;;14.00;64.20;;;;;;4213387;28;20430;-51
2021/04/05 01:22:59;;;;;;;0.05;0.05;;;14.00;64.30;;;;;;4213412;28;20418;-44
2021/04/05 01:25:21;;;;;;;0.00;0.00;;;14.00;64.30;;;;;;4213383;28;20082;-43
2021/04/05 01:27:43;;;;;;;0.25;0.25;;;14.00;64.40;;;;;;4212982;28;20055;-46
2021/04/05 01:30:08;;;;;;;0.10;0.10;;;14.00;64.40;;;;;;4213336;28;20055;-43
2021/04/05 01:32:29;;;;;;;0.00;0.00;;;14.00;64.40;;;;;;4213140;28;20048;-46
2021/04/05 01:34:50;;;;;;;1.45;1.35;;;14.00;64.60;;;;;;4213151;28;20052;-44
2021/04/05 01:37:11;;;;;;;0.13;0.13;;;14.00;64.60;;;;;;4212974;28;20059;-46
2021/04/05 01:39:35;;;;;;;0.00;0.00;;;14.00;64.60;;;;;;4213089;28;20134;-43
2021/04/05 01:41:56;;;;;;;0.00;0.00;;;14.00;64.70;;;;;;4213140;28;20552;-44
2021/04/05 01:44:17;;;;;;;0.00;0.00;;;14.00;64.70;;;;;;4213152;28;20484;-43
2021/04/05 01:46:38;;;;;;;;;;;14.00;64.80;;;;;;4213152;28;20098;-43
2021/04/05 01:49:02;;;;;;;1.55;1.55;;;14.00;64.90;;;;;;4212674;28;19924;-43
2021/04/05 01:51:24;;;;;;;0.00;0.00;;;14.00;64.90;;;;;;4212588;28;20052;-43
2021/04/05 01:53:47;;;;;;;0.00;0.00;;;14.00;64.90;;;;;;4212889;28;20056;-44
2021/04/05 01:56:11;;;;;;;0.63;0.63;;;14.00;64.90;;;;;;4212836;28;20102;-43
2021/04/05 01:58:33;;;;;;;0.32;0.32;;;14.00;65.00;;;;;;4212570;28;20069;-43
2021/04/05 02:00:56;;;;;;;0.00;0.00;;;14.00;65.00;;;;;;4212327;28;20132;-43
2021/04/05 02:03:17;;;;;;;0.17;0.17;;;14.00;65.00;;;;;;4212709;28;20158;-43
2021/04/05 02:05:43;;;;;;;0.00;0.00;;;14.00;65.00;;;;;;4212399;28;20059;-44
2021/04/05 02:08:06;;;;;;;0.00;0.00;;;14.00;65.00;;;;;;4212381;28;20055;-43
2021/04/05 02:10:27;;;;;;;2.25;1.33;;;14.00;65.10;;;;;;4212586;28;20052;-43
2021/04/05 02:12:49;;;;;;;0.10;0.10;;;14.00;65.20;;;;;;4212647;28;20083;-42
2021/04/05 02:15:13;;;;;;;0.22;0.22;;;13.90;65.20;;;;;;4212350;28;20547;-43
2021/04/05 02:17:34;;;;;;;0.00;0.00;;;13.90;65.20;;;;;;4212143;28;20058;-43
2021/04/05 02:19:55;;;;;;;0.00;0.00;;;13.90;65.30;;;;;;4212498;28;20056;-43
2021/04/05 02:22:18;;;;;;;0.45;0.45;;;13.90;65.30;;;;;;4212549;28;20063;-43
2021/04/05 02:24:41;;;;;;;1.35;1.30;;;13.90;65.30;;;;;;4212243;28;20047;-43
2021/04/05 02:27:03;;;;;;;0.00;0.00;;;13.90;65.30;;;;;;4211548;28;20066;-43
2021/04/05 02:29:29;;;;;;;0.22;0.22;;;13.90;65.40;;;;;;4212424;28;20101;-43
2021/04/05 02:31:51;;;;;;;0.05;0.05;;;13.90;65.40;;;;;;4212471;28;20541;-43
2021/04/05 02:34:15;;;;;;;0.10;0.10;;;13.90;65.40;;;;;;4212406;28;20142;-43
2021/04/05 02:36:39;;;;;;;0.25;0.25;;;13.90;65.50;;;;;;4211157;28;20052;-43
2021/04/05 02:39:04;;;;;;;0.00;0.00;;;13.90;65.50;;;;;;4211123;28;20058;-43
2021/04/05 02:41:30;;;;;;;0.10;0.10;;;13.90;65.60;;;;;;4212299;28;20537;-42
2021/04/05 02:43:55;;;;;;;0.00;0.00;;;13.90;65.60;;;;;;4211986;28;20048;-43
2021/04/05 02:46:18;;;;;;;0.00;0.00;;;13.90;65.70;;;;;;4212122;28;20052;-43
2021/04/05 02:48:43;;;;;;;0.00;0.00;;;13.90;65.70;;;;;;4212295;28;20083;-43
2021/04/05 02:51:06;;;;;;;0.00;0.00;;;13.90;65.70;;;;;;4212354;28;20059;-44
2021/04/05 02:53:27;;;;;;;0.00;0.00;;;13.90;65.80;;;;;;4212302;28;20048;-44
2021/04/05 02:55:48;;;;;;;0.10;0.10;;;13.90;65.90;;;;;;4212218;28;20090;-43
2021/04/05 02:58:12;;;;;;;0.90;0.90;;;13.90;65.90;;;;;;4197972;28;20483;-43
2021/04/05 03:00:34;;;;;;;0.10;0.10;;;13.90;66.00;;;;;;4210596;28;20094;-44
2021/04/05 03:02:57;;;;;;;0.10;0.10;;;13.90;66.00;;;;;;4212497;28;20503;-43
2021/04/05 03:05:22;;;;;;;0.10;0.10;;;13.80;66.00;;;;;;4215579;28;20055;-48
2021/04/05 03:07:44;;;;;;;3.72;2.17;;;13.80;66.10;;;;;;4215475;28;20117;-49
2021/04/05 03:10:07;;;;;;;0.00;0.00;;;13.80;66.20;;;;;;4215571;28;20052;-48
2021/04/05 03:12:29;;;;;;;0.00;0.00;;;13.80;66.20;;;;;;4215525;28;20133;-43
2021/04/05 03:14:52;;;;;;;0.68;0.68;;;13.80;66.30;;;;;;4206497;28;20052;-43
2021/04/05 03:17:17;;;;;;;0.40;0.40;;;13.80;66.30;;;;;;4214773;28;20056;-42
2021/04/05 03:19:41;;;;;;;0.20;0.20;;;13.80;66.40;;;;;;4215405;28;20058;-43
2021/04/05 03:22:02;;;;;;;0.00;0.00;;;13.80;66.40;;;;;;4215159;28;20062;-43
2021/04/05 03:24:23;;;;;;;0.30;0.30;;;13.80;66.40;;;;;;4215181;28;20075;-43
2021/04/05 03:26:45;;;;;;;0.57;0.57;;;13.80;66.40;;;;;;4215033;28;20056;-44
2021/04/05 03:29:08;;;;;;;0.00;0.00;;;13.80;66.40;;;;;;4215153;28;20056;-43
2021/04/05 03:31:34;;;;;;;0.65;0.65;;;13.80;66.50;;;;;;4198367;28;20052;-43
2021/04/05 03:33:59;;;;;;;0.20;0.20;;;13.80;66.50;;;;;;4198368;28;20052;-43
2021/04/05 03:36:27;;;;;;;0.88;0.52;;;13.80;66.40;;;;;;4204478;28;20592;-42
2021/04/05 03:38:48;;;;;;;0.45;0.45;;;13.70;66.40;;;;;;4214671;28;20052;-43
2021/04/05 03:41:18;;;;;;;0.00;0.00;;;13.70;66.30;;;;;;4215132;28;20131;-43
2021/04/05 03:43:46;;;;;;;0.00;0.00;;;13.80;66.40;;;;;;4214771;28;20056;-43
2021/04/05 03:46:17;;;;;;;0.20;0.20;;;13.70;66.40;;;;;;4214715;28;20055;-47
2021/04/05 03:48:47;;;;;;;0.00;0.00;;;13.70;66.40;;;;;;4214841;28;20056;-44
2021/04/05 03:51:11;;;;;;;0.65;0.65;;;13.70;66.50;;;;;;4214868;28;20091;-43
2021/04/05 03:53:39;;;;;;;0.00;0.00;;;13.70;66.40;;;;;;4214708;28;20066;-43
2021/04/05 03:56:07;;;;;;;0.00;0.00;;;13.70;66.40;;;;;;4214274;28;20081;-44
2021/04/05 03:58:34;;;;;;;0.95;0.95;;;13.60;66.30;;;;;;4214623;28;20048;-45
2021/04/05 04:01:05;;;;;;;1.15;0.75;;;13.60;66.30;;;;;;4214521;28;20056;-43
2021/04/05 04:03:33;;;;;;;0.00;0.00;;;13.60;66.30;;;;;;4214723;28;20052;-43
2021/04/05 04:06:00;;;;;;;0.00;0.00;;;13.60;66.30;;;;;;4197851;28;20510;-43
2021/04/05 04:08:33;;;;;;;0.00;0.00;;;13.60;66.30;;;;;;4197799;28;20060;-42
2021/04/05 04:11:01;;;;;;;0.03;0.03;;;13.60;66.30;;;;;;4197686;28;20058;-43
2021/04/05 04:13:24;;;;;;;0.10;0.10;;;13.60;66.30;;;;;;4197800;28;20052;-42
2021/04/05 04:15:49;;;;;;;0.00;0.00;;;13.60;66.20;;;;;;4209470;28;20079;-43
2021/04/05 04:18:11;;;;;;;0.10;0.10;;;13.50;66.20;;;;;;4213968;28;20051;-44
2021/04/05 04:20:33;;;;;;;0.70;0.68;;;13.50;66.20;;;;;;4214406;28;20488;-43
2021/04/05 04:22:56;;;;;;;0.00;0.00;;;13.50;66.20;;;;;;4214363;28;20102;-43
2021/04/05 04:25:19;;;;;;;0.00;0.00;;;13.50;66.40;;;;;;4213091;28;20047;-43
2021/04/05 04:27:43;;;;;;;0.00;0.00;;;13.50;66.40;;;;;;4214178;28;20052;-42
2021/04/05 04:30:06;;;;;;;0.00;0.00;;;13.50;66.50;;;;;;4213892;28;20082;-43
2021/04/05 04:32:27;;;;;;;0.05;0.05;;;13.50;66.40;;;;;;4214279;28;20617;-43
2021/04/05 04:34:48;;;;;;;0.10;0.10;;;13.50;66.30;;;;;;4214052;28;20054;-43
2021/04/05 04:37:10;;;;;;;0.00;0.00;;;13.50;66.40;;;;;;4197307;28;20049;-42
2021/04/05 04:39:36;;;;;;;0.00;0.00;;;13.40;66.50;;;;;;4197292;28;20072;-43
2021/04/05 04:41:57;;;;;;;0.00;0.00;;;13.40;66.50;;;;;;4213627;28;20669;-45
2021/04/05 04:44:18;;;;;;;0.00;0.00;;;13.40;66.50;;;;;;4213588;28;20502;-42
2021/04/05 04:46:40;;;;;;;0.00;0.00;;;13.40;66.50;;;;;;4213773;28;20133;-43
2021/04/05 04:49:03;;;;;;;0.32;0.32;;;13.40;66.50;;;;;;4213896;28;20048;-43
2021/04/05 04:51:24;;;;;;;0.00;0.00;;;13.40;66.50;;;;;;4213856;28;20066;-45
2021/04/05 04:53:45;;;;;;;0.00;0.00;;;13.40;66.50;;;;;;4213917;28;20052;-47
2021/04/05 04:56:06;;;;;;;0.00;0.00;;;13.40;66.40;;;;;;4213617;28;20085;-51
2021/04/05 04:58:27;;;;;;;0.03;0.03;;;13.40;66.30;;;;;;4213757;28;20048;-45
2021/04/05 05:00:49;;;;;;;1.00;0.98;;;13.40;66.20;;;;;;4213442;28;20056;-43
2021/04/05 05:03:11;;;;;;;0.00;0.00;;;13.40;66.00;;;;;;4213646;28;20490;-43
2021/04/05 05:05:37;;;;;;;0.00;0.00;;;13.30;66.00;;;;;;4213917;28;20728;-46
2021/04/05 05:07:59;;;;;;;0.00;0.00;;;13.30;66.10;;;;;;4213536;28;20078;-46
2021/04/05 05:10:21;;;;;;;0.10;0.10;;;13.30;66.10;;;;;;4213714;28;20048;-46
2021/04/05 05:12:43;;;;;;;0.10;0.10;;;13.30;66.10;;;;;;4213676;28;20052;-48
2021/04/05 05:15:10;;;;;;;0.00;0.00;;;13.20;65.90;;;;;;4213071;28;20055;-47
2021/04/05 05:17:33;;;;;;;0.00;0.00;;;13.20;66.00;;;;;;4212942;28;20059;-50
2021/04/05 05:19:54;;;;;;;0.00;0.00;;;13.20;65.90;;;;;;4213884;28;20055;-43
2021/04/05 05:22:16;;;;;;;0.00;0.00;;;13.20;66.00;;;;;;4213471;28;20456;-43
2021/04/05 05:24:38;;;;;;;0.00;0.00;;;13.20;66.00;;;;;;4213304;28;20055;-43
2021/04/05 05:26:59;;;;;;;0.00;0.00;;;13.20;66.10;;;;;;4213238;28;20430;-44
2021/04/05 05:29:23;;;;;;;1.75;0.63;;;13.10;66.20;;;;;;4213035;28;20125;-43
2021/04/05 05:31:46;;;;;;;0.00;0.00;;;13.20;66.50;;;;;;4213356;28;20055;-44
2021/04/05 05:34:08;;;;;;;;;;;13.10;66.50;;;;;;4213544;28;20056;-43
2021/04/05 05:36:29;;;;;;;0.00;0.00;;;13.10;66.50;;;;;;4196294;28;19962;-43
2021/04/05 05:38:50;;;;;;;0.00;0.00;;;13.20;67.80;;;;;;4196415;28;20517;-43
2021/04/05 05:41:24;;;;;;;0.00;0.00;;;13.10;67.70;;;;;;4196243;28;20052;-43
2021/04/05 05:43:50;;;;;;;0.10;0.10;;;13.20;67.30;;;;;;4212358;28;20510;-44
2021/04/05 05:46:20;;;;;;;0.25;0.25;;;13.10;66.80;;;;;;4213005;28;20539;-43
2021/04/05 05:48:52;;;;;;;0.00;0.00;;;13.20;66.70;;;;;;4212988;28;20499;-43
2021/04/05 05:51:28;;;;;;;0.00;0.00;;;13.10;66.50;;;;;;4212310;28;20141;-43
2021/04/05 05:54:00;;;;;;;2.05;1.60;;;13.10;66.50;;;;;;4211404;28;20063;-43
2021/04/05 05:56:33;;;;;;;0.00;0.00;;;13.10;66.50;;;;;;4200784;28;20490;-44
2021/04/05 05:59:03;;;;;;;0.00;0.00;;;13.10;66.20;;;;;;4212988;28;20131;-43
2021/04/05 06:01:38;;;;;;;0.00;0.00;;;13.10;66.10;;;;;;4212971;28;20135;-47
2021/04/05 06:04:12;;;;;;;0.00;0.00;;;13.10;66.10;;;;;;4212732;28;20052;-43
2021/04/05 06:06:50;;;;;;;0.00;0.00;;;13.00;65.90;;;;;;4212728;28;20494;-45
2021/04/05 06:09:19;;;;;;;0.00;0.00;;;13.00;66.00;;;;;;4212564;28;20080;-43
2021/04/05 06:11:54;;;;;;;0.80;0.63;;;13.00;66.10;;;;;;4212781;28;20047;-43
2021/04/05 06:14:33;;;;;;;0.00;0.00;;;13.00;66.30;;;;;;4212526;28;20109;-43
2021/04/05 06:17:13;;;;;;;0.00;0.00;;;13.00;66.40;;;;;;4212320;28;20090;-43
2021/04/05 06:19:43;;;;;;;0.10;0.10;;;13.00;67.10;;;;;;4211915;28;20048;-44
2021/04/05 06:22:26;;;;;;;0.00;0.00;;;13.00;66.40;;;;;;4212518;28;20051;-43
2021/04/05 06:24:58;;;;;;;0.00;0.00;;;13.00;68.50;;;;;;4212331;28;20138;-43
2021/04/05 06:27:29;;;;;;;3.92;2.35;;;13.00;74.40;;;;;;4212396;28;20075;-43
2021/04/05 06:30:03;;;;;;;0.20;0.20;;;13.00;73.00;;;;;;4212429;28;20048;-43
2021/04/05 06:32:39;;;;;;;0.05;0.05;;;13.00;70.80;;;;;;4211781;28;20517;-43
2021/04/05 06:35:16;;;;;;;0.00;0.00;;;13.00;69.70;;;;;;4210880;28;20530;-43
2021/04/05 06:37:44;;;;;;;0.38;0.38;;;13.00;68.90;;;;;;4207219;28;20052;-42
2021/04/05 06:40:11;;;;;;;0.10;0.10;;;12.90;68.40;;;;;;4210471;28;20059;-44
2021/04/05 06:43:06;;;;;;;0.00;0.00;;;12.90;68.40;;;;;;4209705;28;20050;-49
2021/04/05 06:45:42;;;;;;;0.00;0.00;;;12.90;68.30;;;;;;4210205;28;20055;-53
2021/04/05 06:48:44;;;;;;;0.00;0.00;;;12.90;68.10;;;;;;4211402;28;20048;-54
2021/04/05 06:51:20;;;;;;;0.00;0.00;;;12.90;67.80;;;;;;4199796;28;20048;-48
2021/04/05 06:54:10;;;;;;;1.00;1.00;;;12.90;67.60;;;;;;4209363;28;20059;-47
2021/04/05 06:56:45;;;;;;;2.45;2.20;;;12.90;67.50;;;;;;4207851;28;20044;-48
2021/04/05 06:59:23;;;;;;;0.00;0.00;;;12.90;67.30;;;;;;4211596;28;20465;-50
2021/04/05 07:01:57;;;;;;;0.00;0.00;;;12.90;67.40;;;;;;4212216;28;20058;-50
2021/04/05 07:04:32;;;;;;;0.43;0.43;;;12.90;68.20;;;;;;4209928;28;20149;-46
2021/04/05 07:07:06;;;;;;;0.00;0.00;;;12.90;67.30;;;;;;4211539;28;20048;-49
2021/04/05 07:09:38;;;;;;;0.00;0.00;;;12.90;67.20;;;;;;4194955;28;20076;-48
2021/04/05 07:12:20;;;;;;;0.28;0.28;;;12.90;67.10;;;;;;4194853;28;20064;-46
2021/04/05 07:14:49;;;;;;;0.22;0.22;;;12.90;67.00;;;;;;4209033;28;20048;-48
2021/04/05 07:17:17;;;;;;;0.28;0.28;;;12.90;66.90;;;;;;4208531;28;20058;-48
2021/04/05 07:19:53;;;;;;;0.00;0.00;;;12.90;66.90;;;;;;4210920;28;20054;-47
2021/04/05 07:22:23;;;;;;;10.85;1.00;;;12.90;66.90;;;;;;4203225;28;20055;-50
2021/04/05 07:24:50;;;;;;;0.00;0.00;;;12.90;66.80;;;;;;4210511;28;20060;-48
2021/04/05 07:27:15;;;;;;;0.00;0.00;;;13.00;66.70;;;;;;4210524;28;20105;-46
2021/04/05 07:29:44;;;;;;;0.00;0.00;;;13.00;66.40;;;;;;4210164;28;20115;-50
2021/04/05 07:32:10;;;;;;;1.33;1.27;;;13.00;65.80;;;;;;4211333;28;20040;-49
2021/04/05 07:34:46;;;;;;;0.00;0.00;;;13.00;65.00;;;;;;4210802;28;20048;-45
2021/04/05 07:37:33;;;;;;;0.00;0.00;;;12.90;64.90;;;;;;4210860;28;20453;-45
2021/04/05 07:40:07;;;;;;;0.00;0.00;;;13.00;64.00;;;;;;4210721;28;20486;-49
2021/04/05 07:42:38;;;;;;;0.00;0.00;;;13.60;62.20;;;;;;4210836;28;20487;-46
2021/04/05 07:45:09;;;;;;;0.00;0.00;;;14.50;59.00;;;;;;4211724;28;20056;-48
2021/04/05 07:47:38;;;;;;;0.05;0.05;;;15.40;56.20;;;;;;4206198;28;20055;-48
2021/04/05 07:50:07;;;;;;;0.00;0.00;;;16.30;53.90;;;;;;4211956;28;20182;-50
2021/04/05 07:52:34;;;;;;;1.00;0.85;;;17.00;51.70;;;;;;4213492;28;20419;-49
2021/04/05 07:55:00;;;;;;;0.00;0.00;;;17.50;50.40;;;;;;4212723;28;20059;-51
2021/04/05 07:57:31;;;;;;;0.00;0.00;;;17.90;50.00;;;;;;4197972;28;20052;-49
2021/04/05 07:59:59;;;;;;;0.00;0.00;;;18.20;48.40;;;;;;4209420;28;20134;-49
2021/04/05 08:02:37;;;;;;;0.00;0.00;;;18.30;48.00;;;;;;4214430;28;20071;-47
2021/04/05 08:05:11;;;;;;;0.00;0.00;;;18.30;47.90;;;;;;4213748;28;20580;-47
2021/04/05 08:07:39;;;;;;;0.00;0.00;;;18.30;47.90;;;;;;4212745;28;20051;-50
2021/04/05 08:10:08;;;;;;;0.20;0.20;;;18.00;48.10;;;;;;4213828;28;20506;-47
2021/04/05 08:12:38;;;;;;;0.32;0.32;;;17.80;48.50;;;;;;4212709;28;20071;-47
2021/04/05 08:15:19;;;;;;;0.00;0.00;;;17.60;48.70;;;;;;4214355;28;20248;-53
2021/04/05 08:17:53;;;;;;;0.10;0.10;;;17.30;49.00;;;;;;4212542;28;20493;-49
2021/04/05 08:20:24;;;;;;;0.00;0.00;;;17.00;49.40;;;;;;4213305;28;20051;-54
2021/04/05 08:22:53;;;;;;;0.13;0.13;;;16.80;50.00;;;;;;4214348;28;20558;-52
2021/04/05 08:25:26;;;;;;;0.00;0.00;;;16.60;50.30;;;;;;4213864;28;20051;-50
2021/04/05 08:27:57;;;;;;;0.00;0.00;;;16.40;50.80;;;;;;4214156;28;20510;-46
2021/04/05 08:30:23;;;;;;;0.00;0.00;;;16.20;51.20;;;;;;4212743;28;20138;-51
2021/04/05 08:32:56;;;;;;;0.00;0.00;;;16.00;51.50;;;;;;4212941;28;20467;-49
2021/04/05 08:35:39;;;;;;;0.00;0.00;;;15.80;51.40;;;;;;4211312;28;20135;-54
2021/04/05 08:38:10;;;;;;;0.00;0.00;;;15.70;51.50;;;;;;4213578;28;20506;-47
2021/04/05 08:40:39;;;;;;;0.00;0.00;;;15.60;51.70;;;;;;4213299;28;20054;-51
2021/04/05 08:43:09;;;;;;;0.00;0.00;;;15.50;51.90;;;;;;4212715;28;20078;-49
2021/04/05 08:45:43;;;;;;;0.00;0.00;;;15.50;52.80;;;;;;4210098;28;20048;-48
2021/04/05 08:48:09;;;;;;;0.00;0.00;;;15.40;52.20;;;;;;4210084;28;20054;-51
2021/04/05 08:50:32;;;;;;;1.35;1.25;;;15.30;51.80;;;;;;4211168;28;20052;-51
2021/04/05 08:52:56;;;;;;;0.10;0.10;;;15.20;52.00;;;;;;4213359;28;20054;-48
2021/04/05 08:55:21;;;;;;;0.00;0.00;;;15.20;51.80;;;;;;4212715;28;20058;-50
2021/04/05 08:57:52;;;;;;;0.65;0.65;;;15.10;51.70;;;;;;4213578;28;20109;-48
2021/04/05 09:00:15;;;;;;;0.00;0.00;;;14.90;51.50;;;;;;4213478;28;20052;-48
2021/04/05 09:02:38;;;;;;;0.90;0.90;;;14.80;51.50;;;;;;4202717;28;20138;-50
2021/04/05 09:05:01;;;;;;;0.00;0.00;;;14.70;51.80;;;;;;4212954;28;20079;-48
2021/04/05 09:07:36;;;;;;;0.00;0.00;;;14.70;52.30;;;;;;4213421;28;20093;-51
2021/04/05 09:10:03;;;;;;;0.00;0.00;;;14.60;52.30;;;;;;4212327;28;20563;-49
2021/04/05 09:12:26;;;;;;;4.38;3.13;;;14.50;52.50;;;;;;4213012;28;20608;-50
2021/04/05 09:15:20;;;;;;;2.20;1.13;;;14.50;52.80;;;;;;4212885;28;20059;-49
2021/04/05 09:18:04;;;;;;;0.00;0.00;;;14.40;53.10;;;;;;4196773;28;20399;-47
2021/04/05 09:20:42;;;;;;;0.00;0.00;;;14.40;52.90;;;;;;4209821;28;20417;-46
2021/04/05 09:23:44;;;;;;;2.42;1.85;;;14.30;53.00;;;;;;4211776;28;20048;-47
2021/04/05 09:26:38;;;;;;;0.00;0.00;;;15.00;52.10;;;;;;4170006;28;20413;-51
2021/04/05 09:29:10;;;;;;;0.00;0.00;;;16.10;49.90;;;;;;4193161;28;20052;-49
2021/04/05 09:32:14;;;;;;;0.00;0.00;;;17.00;47.10;;;;;;4198549;28;20056;-50
2021/04/05 09:35:08;;;;;;;0.00;0.00;;;17.90;44.90;;;;;;4212114;28;20075;-49
2021/04/05 09:38:08;;;;;;;0.00;0.00;;;19.00;42.90;;;;;;4197941;28;20040;-48
2021/04/05 09:40:52;;;;;;;0.00;0.00;;;20.00;41.10;;;;;;4213067;28;20059;-52
2021/04/05 09:43:38;;;;;;;0.00;0.00;;;20.60;39.10;;;;;;4211111;28;20127;-48
2021/04/05 09:46:16;;;;;;;0.00;0.00;;;20.90;38.80;;;;;;4212503;28;20160;-47
2021/04/05 09:48:47;;;;;;;0.05;0.05;;;21.00;38.60;;;;;;4212223;28;20063;-49
2021/04/05 09:51:28;;;;;;;0.00;0.00;;;20.80;38.70;;;;;;4212002;28;20058;-51
2021/04/05 09:54:03;;;;;;;0.68;0.68;;;20.60;39.10;;;;;;4203085;28;20109;-48
2021/04/05 09:56:34;;;;;;;0.00;0.00;;;20.10;39.70;;;;;;4211563;28;20466;-50
2021/04/05 09:59:02;;;;;;;0.00;0.00;;;19.80;40.20;;;;;;4210772;28;20441;-50
2021/04/05 10:01:25;;;;;;;0.00;0.00;;;19.50;40.40;;;;;;4212122;28;20052;-49
2021/04/05 10:03:50;;;;;;;0.00;0.00;;;19.10;41.30;;;;;;4212316;28;20044;-49
2021/04/05 10:06:13;;;;;;;0.00;0.00;;;18.80;41.90;;;;;;4209138;28;20060;-49
2021/04/05 10:08:38;;;;;;;0.20;0.20;;;18.60;41.90;;;;;;4209585;28;20052;-49
2021/04/05 10:11:04;;;;;;;0.00;0.00;;;18.30;42.20;;;;;;4201931;28;20105;-47
2021/04/05 10:13:29;;;;;;;0.00;0.00;;;18.10;42.50;;;;;;4209320;28;20056;-46
2021/04/05 10:16:05;;;;;;;0.00;0.00;;;18.10;42.70;;;;;;4195788;28;20044;-55
2021/04/05 10:18:28;;;;;;;0.00;0.00;;;18.10;42.30;;;;;;4195526;28;20056;-52
2021/04/05 10:20:52;;;;;;;4.57;0.90;;;17.90;42.10;;;;;;4195725;28;20495;-51
2021/04/05 10:23:18;;;;;;;0.00;0.00;;;17.70;42.50;;;;;;4195885;28;20495;-49
2021/04/05 10:25:40;;;;;;;0.00;0.00;;;17.60;43.10;;;;;;4195098;28;20524;-48
2021/04/05 10:28:00;;;;;;;;;;;17.50;42.90;;;;;;4196155;28;20060;-47
2021/04/05 10:30:31;;;;;;;0.00;0.00;;;17.40;43.50;;;;;;4209872;28;20271;-47
2021/04/05 10:32:57;;;;;;;1.08;0.80;;;17.30;43.30;;;;;;4212146;28;20403;-49
2021/04/05 10:35:19;;;;;;;0.20;0.20;;;17.10;44.40;;;;;;4212312;28;20059;-51
2021/04/05 10:37:45;;;;;;;0.00;0.00;;;17.10;45.30;;;;;;4212282;28;20076;-48
2021/04/05 10:40:16;;;;;;;0.00;0.00;;;16.90;46.00;;;;;;4212076;28;20080;-50
2021/04/05 10:42:43;;;;;;;0.00;0.00;;;16.70;45.20;;;;;;4211972;28;20052;-55
2021/04/05 10:45:08;;;;;;;0.00;0.00;;;16.50;45.60;;;;;;4212356;28;20056;-46
2021/04/05 10:47:35;;;;;;;0.73;0.73;;;16.40;46.70;;;;;;4212225;28;20052;-48
2021/04/05 10:49:58;;;;;;;0.00;0.00;;;16.20;47.00;;;;;;4212067;28;20075;-53
2021/04/05 10:52:25;;;;;;;0.20;0.20;;;16.10;47.00;;;;;;4212070;28;20499;-49
2021/04/05 10:54:51;;;;;;;0.00;0.00;;;16.00;47.50;;;;;;4211774;28;20059;-49
2021/04/05 10:57:14;;;;;;;0.20;0.20;;;15.80;47.50;;;;;;4212217;28;20612;-48
2021/04/05 10:59:46;;;;;;;10.88;1.55;;;15.80;48.00;;;;;;4211942;28;20048;-48
2021/04/05 11:02:10;;;;;;;0.00;0.00;;;15.70;48.40;;;;;;4195552;28;20049;-47
2021/04/05 11:04:33;;;;;;;0.00;0.00;;;15.60;48.40;;;;;;4195515;28;20088;-50
2021/04/05 11:06:57;;;;;;;0.00;0.00;;;15.40;48.80;;;;;;4208997;28;20139;-49
2021/04/05 11:09:20;;;;;;;0.00;0.00;;;15.40;49.00;;;;;;4211524;28;20063;-46
2021/04/05 11:11:44;;;;;;;0.03;0.03;;;15.30;49.20;;;;;;4212111;28;20052;-47
2021/04/05 11:14:11;;;;;;;0.00;0.00;;;15.30;49.50;;;;;;4211293;28;20080;-50
2021/04/05 11:16:35;;;;;;;0.80;0.80;;;15.20;49.80;;;;;;4210893;28;20048;-48
2021/04/05 11:19:01;;;;;;;0.00;0.00;;;15.20;50.20;;;;;;4210554;28;20146;-52
2021/04/05 11:21:32;;;;;;;0.00;0.00;;;15.20;50.60;;;;;;4211584;28;20548;-53
2021/04/05 11:23:57;;;;;;;0.00;0.00;;;15.20;50.80;;;;;;4208057;28;20469;-50
2021/04/05 11:26:25;;;;;;;0.32;0.32;;;15.20;50.20;;;;;;4213815;28;20395;-50
2021/04/05 11:28:53;;;;;;;0.00;0.00;;;15.10;49.80;;;;;;4214255;28;20495;-51
2021/04/05 11:31:16;;;;;;;0.00;0.00;;;15.00;49.60;;;;;;4215077;28;20059;-48
2021/04/05 11:33:43;;;;;;;0.00;0.00;;;15.00;49.50;;;;;;4213631;28;20093;-49
2021/04/05 11:36:06;;;;;;;0.00;0.00;;;14.90;49.30;;;;;;4214399;28;20079;-49
2021/04/05 11:38:29;;;;;;;0.00;0.00;;;14.90;49.20;;;;;;4214758;28;20122;-49
2021/04/05 11:40:58;;;;;;;0.00;0.00;;;14.90;49.20;;;;;;4214994;28;20514;-48
2021/04/05 11:43:22;;;;;;;3.30;1.55;;;14.80;49.10;;;;;;4214307;28;20136;-52
2021/04/05 11:45:50;;;;;;;0.00;0.00;;;14.80;49.00;;;;;;4214008;28;20056;-53
2021/04/05 11:48:16;;;;;;;0.00;0.00;;;14.80;49.20;;;;;;4197953;28;20415;-54
2021/04/05 11:50:43;;;;;;;0.00;0.00;;;14.70;49.20;;;;;;4208727;28;20074;-49
2021/04/05 11:53:10;;;;;;;0.00;0.00;;;14.70;49.00;;;;;;4214374;28;20055;-49
2021/04/05 11:55:33;;;;;;;0.00;0.00;;;14.70;49.00;;;;;;4214681;28;20130;-48
2021/04/05 11:57:59;;;;;;;0.00;0.00;;;14.70;48.90;;;;;;4213791;28;20056;-52
2021/04/05 12:00:28;;;;;;;0.00;0.00;;;14.90;48.70;;;;;;4213561;28;20044;-46
2021/04/05 12:02:54;;;;;;;0.00;0.00;;;14.90;48.50;;;;;;4214684;28;20055;-47
2021/04/05 12:05:22;;;;;;;0.00;0.00;;;15.00;48.30;;;;;;4213276;28;20075;-53
2021/04/05 12:07:46;;;;;;;0.00;0.00;;;15.00;48.10;;;;;;4211260;28;20051;-49
2021/04/05 12:10:18;;;;;;;0.00;0.00;;;15.10;48.10;;;;;;4197692;28;20145;-50
2021/04/05 12:12:43;;;;;;;0.00;0.00;;;15.10;48.80;;;;;;4197720;28;20061;-47
2021/04/05 12:15:10;;;;;;;0.00;0.00;;;15.20;47.80;;;;;;4213425;28;20123;-47
2021/04/05 12:17:32;;;;;;;0.00;0.00;;;15.20;47.70;;;;;;4213792;28;20067;-46
2021/04/05 12:19:57;;;;;;;0.00;0.00;;;15.20;47.30;;;;;;4214140;28;20206;-47
2021/04/05 12:22:25;;;;;;;0.10;0.10;;;15.20;47.10;;;;;;4213849;28;20067;-51
2021/04/05 12:24:50;;;;;;;0.00;0.00;;;15.20;46.90;;;;;;4213777;28;20087;-49
2021/04/05 12:27:13;;;;;;;0.00;0.00;;;15.20;47.00;;;;;;4211598;28;20816;-48
2021/04/05 12:29:35;;;;;;;0.00;0.00;;;15.20;47.30;;;;;;4213689;28;20056;-51
2021/04/05 12:31:58;;;;;;;0.00;0.00;;;15.10;47.30;;;;;;4213939;28;20052;-51
2021/04/05 12:34:21;;;;;;;0.70;0.22;;;15.10;47.80;;;;;;4213793;28;20425;-48
2021/04/05 12:36:44;;;;;;;0.47;0.47;;;15.10;47.80;;;;;;4212624;28;20055;-52
2021/04/05 12:39:10;;;;;;;0.00;0.00;;;15.10;47.80;;;;;;4207484;28;20136;-47
2021/04/05 12:41:36;;;;;;;0.35;0.35;;;15.20;48.10;;;;;;4213969;28;20519;-52
2021/04/05 12:43:58;;;;;;;0.10;0.10;;;15.40;47.40;;;;;;4213268;28;20464;-50
2021/04/05 12:46:22;;;;;;;0.00;0.00;;;15.50;47.20;;;;;;4213872;28;20813;-50
2021/04/05 12:48:44;;;;;;;;;;;15.60;47.70;;;;;;4213909;28;20059;-48